createdAt,value
2022-11-01T00:00:45.749Z,31.30
2022-11-01T00:01:45.829Z,28.40
2022-11-01T00:02:46.597Z,28.00
2022-11-01T00:03:45.735Z,28.30
2022-11-01T00:04:45.674Z,29.20
2022-11-01T00:05:45.686Z,29.80
2022-11-01T00:06:45.666Z,29.60
2022-11-01T00:07:45.646Z,24.80
2022-11-01T00:08:45.646Z,24.20
2022-11-01T00:09:45.642Z,28.20
2022-11-01T00:10:45.603Z,25.00
2022-11-01T00:11:45.565Z,25.90
2022-11-01T00:12:45.566Z,24.90
2022-11-01T00:13:45.560Z,24.40
2022-11-01T00:14:45.565Z,27.40
2022-11-01T00:15:45.588Z,22.10
2022-11-01T00:16:45.546Z,22.80
2022-11-01T00:17:45.505Z,26.40
2022-11-01T00:18:45.517Z,28.70
2022-11-01T00:19:45.716Z,25.00
2022-11-01T00:20:45.476Z,26.60
2022-11-01T00:21:45.458Z,22.50
2022-11-01T00:22:45.454Z,26.10
2022-11-01T00:23:45.429Z,28.70
2022-11-01T00:24:46.280Z,26.20
2022-11-01T00:25:45.425Z,25.50
2022-11-01T00:26:45.481Z,25.90
2022-11-01T00:27:45.386Z,25.70
2022-11-01T00:28:45.375Z,25.20
2022-11-01T00:29:45.358Z,25.30
2022-11-01T00:30:46.214Z,25.50
2022-11-01T00:31:45.345Z,27.80
2022-11-01T00:32:45.334Z,27.20
2022-11-01T00:33:46.075Z,26.80
2022-11-01T00:34:45.324Z,24.80
2022-11-01T00:35:46.244Z,26.20
2022-11-01T00:36:45.312Z,24.60
2022-11-01T00:37:45.268Z,30.70
2022-11-01T00:38:45.265Z,27.80
2022-11-01T00:39:45.235Z,27.90
2022-11-01T00:40:45.253Z,32.60
2022-11-01T00:41:45.215Z,28.00
2022-11-01T00:42:45.223Z,30.70
2022-11-01T00:43:45.204Z,26.70
2022-11-01T00:44:45.206Z,29.20
2022-11-01T00:45:45.166Z,23.10
2022-11-01T00:46:45.954Z,23.20
2022-11-01T00:47:45.155Z,25.00
2022-11-01T00:48:45.195Z,20.30
2022-11-01T00:49:45.134Z,23.20
2022-11-01T00:50:45.135Z,29.90
2022-11-01T00:51:45.115Z,24.60
2022-11-01T00:52:45.104Z,24.70
2022-11-01T00:53:45.943Z,24.90
2022-11-01T00:54:45.857Z,25.00
2022-11-01T00:55:45.074Z,28.70
2022-11-01T00:56:45.063Z,27.70
2022-11-01T00:57:45.927Z,27.60
2022-11-01T00:58:45.043Z,30.30
2022-11-01T00:59:45.082Z,31.40
2022-11-01T01:00:45.074Z,29.50
2022-11-01T01:01:45.102Z,31.90
2022-11-01T01:02:44.994Z,30.00
2022-11-01T01:03:45.857Z,34.20
2022-11-01T01:04:44.988Z,31.30
2022-11-01T01:05:44.969Z,27.80
2022-11-01T01:06:44.944Z,31.20
2022-11-01T01:07:44.915Z,25.20
2022-11-01T01:08:45.637Z,29.40
2022-11-01T01:09:44.943Z,25.70
2022-11-01T01:10:44.904Z,23.50
2022-11-01T01:11:44.873Z,25.10
2022-11-01T01:12:44.884Z,25.20
2022-11-01T01:13:45.664Z,22.90
2022-11-01T01:14:44.875Z,23.10
2022-11-01T01:15:45.656Z,19.40
2022-11-01T01:16:44.860Z,22.90
2022-11-01T01:17:44.813Z,21.20
2022-11-01T01:18:44.802Z,23.30
2022-11-01T01:19:45.094Z,19.40
2022-11-01T01:20:44.781Z,19.20
2022-11-01T01:21:44.782Z,19.80
2022-11-01T01:22:44.758Z,21.60
2022-11-01T01:23:44.734Z,18.60
2022-11-01T01:24:44.733Z,20.90
2022-11-01T01:25:44.823Z,20.90
2022-11-01T01:26:44.722Z,24.70
2022-11-01T01:27:44.694Z,18.00
2022-11-01T01:28:45.072Z,23.50
2022-11-01T01:29:44.653Z,23.00
2022-11-01T01:30:45.577Z,22.70
2022-11-01T01:31:44.654Z,21.60
2022-11-01T01:32:44.645Z,20.20
2022-11-01T01:33:44.615Z,16.40
2022-11-01T01:34:44.622Z,19.70
2022-11-01T01:35:45.344Z,16.50
2022-11-01T01:36:45.511Z,16.70
2022-11-01T01:37:44.582Z,15.80
2022-11-01T01:38:44.572Z,13.00
2022-11-01T01:39:44.562Z,14.40
2022-11-01T01:40:44.553Z,13.20
2022-11-01T01:41:44.533Z,14.50
2022-11-01T01:42:44.534Z,17.40
2022-11-01T01:43:44.503Z,14.40
2022-11-01T01:44:44.502Z,18.00
2022-11-01T01:45:44.473Z,13.90
2022-11-01T01:46:44.484Z,12.90
2022-11-01T01:47:44.454Z,18.80
2022-11-01T01:48:44.462Z,18.20
2022-11-01T01:49:44.486Z,18.10
2022-11-01T01:50:44.431Z,16.60
2022-11-01T01:51:44.402Z,17.30
2022-11-01T01:52:45.252Z,17.50
2022-11-01T01:53:47.986Z,17.70
2022-11-01T01:54:44.471Z,17.10
2022-11-01T01:55:44.376Z,20.30
2022-11-01T01:56:45.122Z,15.30
2022-11-01T01:57:45.283Z,19.60
2022-11-01T01:58:44.645Z,18.70
2022-11-01T01:59:44.321Z,19.00
2022-11-01T02:00:44.355Z,19.90
2022-11-01T02:01:44.392Z,17.80
2022-11-01T02:02:44.295Z,17.70
2022-11-01T02:03:45.221Z,17.80
2022-11-01T02:04:44.295Z,18.00
2022-11-01T02:05:44.251Z,21.10
2022-11-01T02:06:44.255Z,20.60
2022-11-01T02:07:44.222Z,24.60
2022-11-01T02:08:44.242Z,20.00
2022-11-01T02:09:44.225Z,18.70
2022-11-01T02:10:44.205Z,21.30
2022-11-01T02:11:44.182Z,19.40
2022-11-01T02:12:44.181Z,19.40
2022-11-01T02:13:44.152Z,23.10
2022-11-01T02:14:44.172Z,21.90
2022-11-01T02:15:44.132Z,17.70
2022-11-01T02:16:44.891Z,18.90
2022-11-01T02:17:44.127Z,11.60
2022-11-01T02:18:44.122Z,15.30
2022-11-01T02:19:44.112Z,13.40
2022-11-01T02:20:44.102Z,14.80
2022-11-01T02:21:44.062Z,13.70
2022-11-01T02:23:44.041Z,19.00
2022-11-01T02:24:44.041Z,14.20
2022-11-01T02:25:44.045Z,14.60
2022-11-01T02:26:44.034Z,12.60
2022-11-01T02:27:44.071Z,13.10
2022-11-01T02:28:44.001Z,9.20
2022-11-01T02:29:43.982Z,10.70
2022-11-01T02:30:44.560Z,10.30
2022-11-01T02:31:43.951Z,11.30
2022-11-01T02:32:43.959Z,17.80
2022-11-01T02:33:43.928Z,11.10
2022-11-01T02:34:43.930Z,9.00
2022-11-01T02:35:43.909Z,17.30
2022-11-01T02:36:43.922Z,13.70
2022-11-01T02:37:44.771Z,11.10
2022-11-01T02:38:44.120Z,17.00
2022-11-01T02:39:43.865Z,11.40
2022-11-01T02:40:43.879Z,11.40
2022-11-01T02:41:44.210Z,14.00
2022-11-01T02:42:43.841Z,9.10
2022-11-01T02:43:44.335Z,13.00
2022-11-01T02:44:43.843Z,12.30
2022-11-01T02:45:51.364Z,13.70
2022-11-01T02:46:43.801Z,12.70
2022-11-01T02:47:43.784Z,13.50
2022-11-01T02:48:43.784Z,8.50
2022-11-01T02:49:43.765Z,10.90
2022-11-01T02:50:43.764Z,10.60
2022-11-01T02:51:43.730Z,10.40
2022-11-01T02:52:44.621Z,12.50
2022-11-01T02:53:43.714Z,10.70
2022-11-01T02:54:43.703Z,9.40
2022-11-01T02:56:44.488Z,8.10
2022-11-01T02:57:44.387Z,8.40
2022-11-01T02:58:44.553Z,11.70
2022-11-01T02:59:43.663Z,11.80
2022-11-01T03:00:43.780Z,8.80
2022-11-01T03:01:43.739Z,11.10
2022-11-01T03:02:43.618Z,11.60
2022-11-01T03:03:43.604Z,10.30
2022-11-01T03:04:44.507Z,12.20
2022-11-01T03:05:43.617Z,9.20
2022-11-01T03:06:43.577Z,14.80
2022-11-01T03:07:43.572Z,11.80
2022-11-01T03:08:44.368Z,8.70
2022-11-01T03:09:43.546Z,11.00
2022-11-01T03:10:44.080Z,9.70
2022-11-01T03:11:43.533Z,10.10
2022-11-01T03:12:43.541Z,11.40
2022-11-01T03:13:43.495Z,10.60
2022-11-01T03:14:43.479Z,8.60
2022-11-01T03:15:43.722Z,10.90
2022-11-01T03:16:43.465Z,10.00
2022-11-01T03:17:43.540Z,10.90
2022-11-01T03:18:44.164Z,9.00
2022-11-01T03:19:43.470Z,12.30
2022-11-01T03:20:43.441Z,8.00
2022-11-01T03:21:43.979Z,11.60
2022-11-01T03:22:43.404Z,7.90
2022-11-01T03:23:43.420Z,9.10
2022-11-01T03:24:43.374Z,8.80
2022-11-01T03:25:43.368Z,9.10
2022-11-01T03:26:43.594Z,9.20
2022-11-01T03:27:43.403Z,10.00
2022-11-01T03:28:43.387Z,9.60
2022-11-01T03:29:43.325Z,10.70
2022-11-01T03:30:43.303Z,9.40
2022-11-01T03:31:43.300Z,8.60
2022-11-01T03:32:43.308Z,6.60
2022-11-01T03:33:43.374Z,7.80
2022-11-01T03:34:43.256Z,7.60
2022-11-01T03:35:43.254Z,9.60
2022-11-01T03:36:43.236Z,10.10
2022-11-01T03:37:44.137Z,8.90
2022-11-01T03:38:43.935Z,11.10
2022-11-01T03:39:43.248Z,9.20
2022-11-01T03:40:43.208Z,8.30
2022-11-01T03:41:43.197Z,7.90
2022-11-01T03:42:43.180Z,14.10
2022-11-01T03:43:44.077Z,9.00
2022-11-01T03:44:43.157Z,9.40
2022-11-01T03:45:43.148Z,8.90
2022-11-01T03:46:43.117Z,8.00
2022-11-01T03:47:43.123Z,8.00
2022-11-01T03:48:43.844Z,10.60
2022-11-01T03:49:43.120Z,9.70
2022-11-01T03:50:43.077Z,9.70
2022-11-01T03:51:43.070Z,7.00
2022-11-01T03:52:43.055Z,14.50
2022-11-01T03:53:43.074Z,9.50
2022-11-01T03:54:43.035Z,9.90
2022-11-01T03:55:43.041Z,10.20
2022-11-01T03:56:43.017Z,10.10
2022-11-01T03:57:43.030Z,12.60
2022-11-01T03:58:43.909Z,8.40
2022-11-01T03:59:43.818Z,8.50
2022-11-01T04:00:43.029Z,9.30
2022-11-01T04:01:43.073Z,8.20
2022-11-01T04:02:42.931Z,8.60
2022-11-01T04:03:42.925Z,10.20
2022-11-01T04:04:42.896Z,9.50
2022-11-01T04:05:42.916Z,7.60
2022-11-01T04:06:42.964Z,7.10
2022-11-01T04:07:42.877Z,7.60
2022-11-01T04:08:42.855Z,8.30
2022-11-01T04:09:42.858Z,7.30
2022-11-01T04:10:43.175Z,6.70
2022-11-01T04:11:42.848Z,10.90
2022-11-01T04:12:42.804Z,10.60
2022-11-01T04:13:42.803Z,10.90
2022-11-01T04:14:42.781Z,7.70
2022-11-01T04:15:42.803Z,8.10
2022-11-01T04:16:42.764Z,8.50
2022-11-01T04:17:42.775Z,9.70
2022-11-01T04:18:42.814Z,7.70
2022-11-01T04:19:43.686Z,10.20
2022-11-01T04:20:42.745Z,10.20
2022-11-01T04:21:42.908Z,9.00
2022-11-01T04:22:42.719Z,8.30
2022-11-01T04:23:42.686Z,9.40
2022-11-01T04:24:42.700Z,6.70
2022-11-01T04:25:42.675Z,8.50
2022-11-01T04:26:42.643Z,8.20
2022-11-01T04:27:42.659Z,8.60
2022-11-01T04:28:42.629Z,6.50
2022-11-01T04:29:42.637Z,13.10
2022-11-01T04:30:42.598Z,9.60
2022-11-01T04:31:42.644Z,7.30
2022-11-01T04:32:43.023Z,9.40
2022-11-01T04:33:42.593Z,7.00
2022-11-01T04:34:42.548Z,9.20
2022-11-01T04:35:42.567Z,8.00
2022-11-01T04:36:42.524Z,8.80
2022-11-01T04:37:42.530Z,8.50
2022-11-01T04:38:42.655Z,7.80
2022-11-01T04:39:42.543Z,10.20
2022-11-01T04:40:43.221Z,7.20
2022-11-01T04:41:42.514Z,6.60
2022-11-01T04:42:42.474Z,10.50
2022-11-01T04:43:42.709Z,9.20
2022-11-01T04:44:42.459Z,11.30
2022-11-01T04:45:42.448Z,9.10
2022-11-01T04:46:42.405Z,9.50
2022-11-01T04:47:42.416Z,8.10
2022-11-01T04:48:42.388Z,10.00
2022-11-01T04:49:42.401Z,8.80
2022-11-01T04:50:42.368Z,10.50
2022-11-01T04:51:42.370Z,9.50
2022-11-01T04:52:42.362Z,7.50
2022-11-01T04:53:42.352Z,7.40
2022-11-01T04:54:43.163Z,10.20
2022-11-01T04:55:42.316Z,8.20
2022-11-01T04:56:42.284Z,8.00
2022-11-01T04:57:42.293Z,7.90
2022-11-01T04:58:46.042Z,11.80
2022-11-01T04:59:43.178Z,11.80
2022-11-01T05:00:42.295Z,8.40
2022-11-01T05:01:42.329Z,10.50
2022-11-01T05:02:42.236Z,10.10
2022-11-01T05:03:42.226Z,9.70
2022-11-01T05:04:42.203Z,11.00
2022-11-01T05:05:42.197Z,6.60
2022-11-01T05:06:42.211Z,7.60
2022-11-01T05:07:42.189Z,8.70
2022-11-01T05:08:42.159Z,8.50
2022-11-01T05:09:42.177Z,6.30
2022-11-01T05:10:42.118Z,6.70
2022-11-01T05:11:42.129Z,7.90
2022-11-01T05:12:42.141Z,9.60
2022-11-01T05:13:42.115Z,9.50
2022-11-01T05:14:42.086Z,10.00
2022-11-01T05:15:59.272Z,9.20
2022-11-01T05:16:43.061Z,11.20
2022-11-01T05:17:42.056Z,7.60
2022-11-01T05:18:42.034Z,8.30
2022-11-01T05:19:42.040Z,11.10
2022-11-01T05:20:42.017Z,9.90
2022-11-01T05:21:42.054Z,7.70
2022-11-01T05:22:41.998Z,11.40
2022-11-01T05:23:41.983Z,8.90
2022-11-01T05:25:41.984Z,7.90
2022-11-01T05:26:41.942Z,7.60
2022-11-01T05:27:41.933Z,11.20
2022-11-01T05:28:41.919Z,9.70
2022-11-01T05:29:41.926Z,12.30
2022-11-01T05:30:41.908Z,10.50
2022-11-01T05:31:41.875Z,8.90
2022-11-01T05:32:41.864Z,7.20
2022-11-01T05:33:41.876Z,8.80
2022-11-01T05:34:41.848Z,10.70
2022-11-01T05:35:41.872Z,12.20
2022-11-01T05:36:41.840Z,8.60
2022-11-01T05:37:41.842Z,9.90
2022-11-01T05:38:41.801Z,8.90
2022-11-01T05:39:41.792Z,7.90
2022-11-01T05:40:42.465Z,12.40
2022-11-01T05:41:41.858Z,8.10
2022-11-01T05:42:41.745Z,7.50
2022-11-01T05:43:41.745Z,7.70
2022-11-01T05:44:41.724Z,11.30
2022-11-01T05:45:41.760Z,10.40
2022-11-01T05:46:41.708Z,8.10
2022-11-01T05:47:41.698Z,9.50
2022-11-01T05:48:41.707Z,9.10
2022-11-01T05:49:41.673Z,9.30
2022-11-01T05:50:41.683Z,8.00
2022-11-01T05:51:41.644Z,8.70
2022-11-01T05:52:41.629Z,8.20
2022-11-01T05:53:41.636Z,7.60
2022-11-01T05:54:41.616Z,7.30
2022-11-01T05:55:41.634Z,6.80
2022-11-01T05:56:41.596Z,9.10
2022-11-01T05:57:41.636Z,9.60
2022-11-01T05:58:41.579Z,10.30
2022-11-01T05:59:41.557Z,9.30
2022-11-01T06:00:42.087Z,11.50
2022-11-01T06:01:42.474Z,8.90
2022-11-01T06:02:42.163Z,8.10
2022-11-01T06:03:41.508Z,10.10
2022-11-01T06:04:41.490Z,7.20
2022-11-01T06:05:41.499Z,7.70
2022-11-01T06:06:41.456Z,7.10
2022-11-01T06:07:41.495Z,11.70
2022-11-01T06:08:41.475Z,9.00
2022-11-01T06:09:41.461Z,9.00
2022-11-01T06:10:41.426Z,7.10
2022-11-01T06:11:41.902Z,8.00
2022-11-01T06:12:41.427Z,7.70
2022-11-01T06:13:41.645Z,8.40
2022-11-01T06:14:41.466Z,8.80
2022-11-01T06:15:41.372Z,8.30
2022-11-01T06:16:41.354Z,8.30
2022-11-01T06:17:41.384Z,9.90
2022-11-01T06:18:41.441Z,7.80
2022-11-01T06:19:41.336Z,7.70
2022-11-01T06:20:41.311Z,9.50
2022-11-01T06:21:41.326Z,8.10
2022-11-01T06:22:41.413Z,9.70
2022-11-01T06:23:41.304Z,7.50
2022-11-01T06:24:41.256Z,9.30
2022-11-01T06:25:41.277Z,13.80
2022-11-01T06:26:41.275Z,7.90
2022-11-01T06:27:41.255Z,12.80
2022-11-01T06:28:41.222Z,7.70
2022-11-01T06:29:41.264Z,8.90
2022-11-01T06:30:41.209Z,7.90
2022-11-01T06:31:41.208Z,8.10
2022-11-01T06:32:41.194Z,11.10
2022-11-01T06:33:41.163Z,7.90
2022-11-01T06:34:44.103Z,7.30
2022-11-01T06:35:41.166Z,9.60
2022-11-01T06:36:41.119Z,6.30
2022-11-01T06:37:41.123Z,7.80
2022-11-01T06:38:41.108Z,7.80
2022-11-01T06:39:41.096Z,8.10
2022-11-01T06:40:41.068Z,9.20
2022-11-01T06:41:41.276Z,9.10
2022-11-01T06:42:45.552Z,9.20
2022-11-01T06:43:42.916Z,6.00
2022-11-01T06:44:41.024Z,7.90
2022-11-01T06:45:41.045Z,10.00
2022-11-01T06:46:41.022Z,7.60
2022-11-01T06:47:41.015Z,8.80
2022-11-01T06:48:40.992Z,8.30
2022-11-01T06:49:40.986Z,10.00
2022-11-01T06:50:40.949Z,10.50
2022-11-01T06:51:41.067Z,8.30
2022-11-01T06:52:40.935Z,7.20
2022-11-01T06:53:40.926Z,7.70
2022-11-01T06:54:40.931Z,6.90
2022-11-01T06:55:40.905Z,8.20
2022-11-01T06:56:40.885Z,6.70
2022-11-01T06:57:40.899Z,8.30
2022-11-01T06:58:40.869Z,10.10
2022-11-01T06:59:40.872Z,10.00
2022-11-01T07:00:40.913Z,6.90
2022-11-01T07:01:40.986Z,6.30
2022-11-01T07:02:40.955Z,9.10
2022-11-01T07:03:40.849Z,7.80
2022-11-01T07:04:40.842Z,7.60
2022-11-01T07:05:40.807Z,8.50
2022-11-01T07:06:40.788Z,8.40
2022-11-01T07:07:40.775Z,7.70
2022-11-01T07:08:40.767Z,8.10
2022-11-01T07:09:40.768Z,9.50
2022-11-01T07:10:40.725Z,7.20
2022-11-01T07:11:40.755Z,5.40
2022-11-01T07:12:40.695Z,7.50
2022-11-01T07:13:40.728Z,10.10
2022-11-01T07:14:40.693Z,7.40
2022-11-01T07:15:40.695Z,8.00
2022-11-01T07:16:40.678Z,7.70
2022-11-01T07:17:40.656Z,8.40
2022-11-01T07:18:40.627Z,8.50
2022-11-01T07:19:40.642Z,8.60
2022-11-01T07:20:40.683Z,9.30
2022-11-01T07:21:40.616Z,7.40
2022-11-01T07:22:41.490Z,8.80
2022-11-01T07:23:41.406Z,5.80
2022-11-01T07:24:40.615Z,7.50
2022-11-01T07:25:40.567Z,8.40
2022-11-01T07:26:40.597Z,5.80
2022-11-01T07:27:40.552Z,5.40
2022-11-01T07:28:40.538Z,6.80
2022-11-01T07:29:40.504Z,6.10
2022-11-01T07:30:40.523Z,5.10
2022-11-01T07:31:40.484Z,5.90
2022-11-01T07:32:40.484Z,6.20
2022-11-01T07:33:40.478Z,8.20
2022-11-01T07:34:40.485Z,6.10
2022-11-01T07:35:40.436Z,5.80
2022-11-01T07:36:40.446Z,9.00
2022-11-01T07:37:40.422Z,6.00
2022-11-01T07:38:40.418Z,8.40
2022-11-01T07:39:40.398Z,8.80
2022-11-01T07:40:40.407Z,9.90
2022-11-01T07:41:40.617Z,6.40
2022-11-01T07:42:40.395Z,7.90
2022-11-01T07:43:41.256Z,6.90
2022-11-01T07:44:40.394Z,6.60
2022-11-01T07:45:40.325Z,9.00
2022-11-01T07:46:40.338Z,4.90
2022-11-01T07:47:40.306Z,6.50
2022-11-01T07:48:40.301Z,10.80
2022-11-01T07:49:40.266Z,10.30
2022-11-01T07:50:40.297Z,6.90
2022-11-01T07:51:40.246Z,8.70
2022-11-01T07:52:40.254Z,7.40
2022-11-01T07:53:40.235Z,6.30
2022-11-01T07:54:40.222Z,5.40
2022-11-01T07:55:40.197Z,8.60
2022-11-01T07:56:40.204Z,5.00
2022-11-01T07:57:40.206Z,6.40
2022-11-01T07:58:40.175Z,5.80
2022-11-01T07:59:40.146Z,6.00
2022-11-01T08:00:40.165Z,4.90
2022-11-01T08:01:40.458Z,5.50
2022-11-01T08:02:40.138Z,7.20
2022-11-01T08:03:40.887Z,6.00
2022-11-01T08:04:40.931Z,6.90
2022-11-01T08:05:40.107Z,5.30
2022-11-01T08:06:40.116Z,6.70
2022-11-01T08:07:40.067Z,6.50
2022-11-01T08:08:40.059Z,5.20
2022-11-01T08:09:40.038Z,7.30
2022-11-01T08:10:40.058Z,7.60
2022-11-01T08:11:41.006Z,8.90
2022-11-01T08:12:40.023Z,8.60
2022-11-01T08:13:40.005Z,8.10
2022-11-01T08:14:39.998Z,4.40
2022-11-01T08:15:39.979Z,7.00
2022-11-01T08:16:39.972Z,4.20
2022-11-01T08:17:40.241Z,4.90
2022-11-01T08:18:39.973Z,6.00
2022-11-01T08:19:39.916Z,4.80
2022-11-01T08:20:39.932Z,6.00
2022-11-01T08:21:39.900Z,5.10
2022-11-01T08:22:39.959Z,6.00
2022-11-01T08:23:40.759Z,4.30
2022-11-01T08:24:40.659Z,6.40
2022-11-01T08:25:40.721Z,7.90
2022-11-01T08:26:39.906Z,5.90
2022-11-01T08:27:39.856Z,4.90
2022-11-01T08:28:39.855Z,4.20
2022-11-01T08:29:39.827Z,6.00
2022-11-01T08:30:39.874Z,5.90
2022-11-01T08:31:39.776Z,5.00
2022-11-01T08:32:39.781Z,6.30
2022-11-01T08:33:39.758Z,5.20
2022-11-01T08:34:39.765Z,4.10
2022-11-01T08:35:39.735Z,3.00
2022-11-01T08:36:39.744Z,3.30
2022-11-01T08:37:39.706Z,4.40
2022-11-01T08:38:39.711Z,5.10
2022-11-01T08:39:39.699Z,3.60
2022-11-01T08:40:39.688Z,3.30
2022-11-01T08:41:39.684Z,4.60
2022-11-01T08:42:39.669Z,3.10
2022-11-01T08:43:40.771Z,7.00
2022-11-01T08:44:40.517Z,3.40
2022-11-01T08:45:39.643Z,3.10
2022-11-01T08:46:39.641Z,4.00
2022-11-01T08:47:39.590Z,4.60
2022-11-01T08:48:39.597Z,4.50
2022-11-01T08:49:39.585Z,3.20
2022-11-01T08:50:39.579Z,6.90
2022-11-01T08:51:39.538Z,5.20
2022-11-01T08:52:39.546Z,4.70
2022-11-01T08:53:39.528Z,1.70
2022-11-01T08:54:39.526Z,3.60
2022-11-01T08:55:39.556Z,4.90
2022-11-01T08:56:39.489Z,3.80
2022-11-01T08:57:39.505Z,5.10
2022-11-01T08:58:39.487Z,2.20
2022-11-01T08:59:39.451Z,3.50
2022-11-01T09:00:39.447Z,3.10
2022-11-01T09:01:39.481Z,3.60
2022-11-01T09:02:39.480Z,4.10
2022-11-01T09:03:39.426Z,3.30
2022-11-01T09:04:39.425Z,2.10
2022-11-01T09:05:40.316Z,6.60
2022-11-01T09:06:40.198Z,4.90
2022-11-01T09:07:39.369Z,2.80
2022-11-01T09:08:39.374Z,3.30
2022-11-01T09:09:39.348Z,3.70
2022-11-01T09:10:39.349Z,2.30
2022-11-01T09:11:39.313Z,5.50
2022-11-01T09:13:39.305Z,6.10
2022-11-01T09:14:39.298Z,2.60
2022-11-01T09:15:39.267Z,4.60
2022-11-01T09:16:39.276Z,2.00
2022-11-01T09:17:39.267Z,4.60
2022-11-01T09:18:39.252Z,2.30
2022-11-01T09:19:39.218Z,4.30
2022-11-01T09:20:39.342Z,4.60
2022-11-01T09:21:39.202Z,2.60
2022-11-01T09:22:39.205Z,3.10
2022-11-01T09:23:39.168Z,3.10
2022-11-01T09:24:39.203Z,1.90
2022-11-01T09:25:39.908Z,1.80
2022-11-01T09:26:39.188Z,2.40
2022-11-01T09:27:39.166Z,3.10
2022-11-01T09:28:39.158Z,2.80
2022-11-01T09:29:39.112Z,2.30
2022-11-01T09:30:45.217Z,3.40
2022-11-01T09:31:40.092Z,4.00
2022-11-01T09:32:39.114Z,3.10
2022-11-01T09:33:39.058Z,3.50
2022-11-01T09:34:39.077Z,5.30
2022-11-01T09:35:39.048Z,2.20
2022-11-01T09:36:39.067Z,4.70
2022-11-01T09:37:39.029Z,2.80
2022-11-01T09:38:39.016Z,1.70
2022-11-01T09:39:38.988Z,2.00
2022-11-01T09:40:39.078Z,4.80
2022-11-01T09:41:39.001Z,3.30
2022-11-01T09:42:38.985Z,2.90
2022-11-01T09:43:38.959Z,3.70
2022-11-01T09:44:38.968Z,6.70
2022-11-01T09:45:39.777Z,3.40
2022-11-01T09:46:38.956Z,3.10
2022-11-01T09:47:39.227Z,1.60
2022-11-01T09:48:38.918Z,3.00
2022-11-01T09:49:38.868Z,2.00
2022-11-01T09:50:38.877Z,2.90
2022-11-01T09:51:39.019Z,3.60
2022-11-01T09:52:38.859Z,3.20
2022-11-01T09:53:38.837Z,2.50
2022-11-01T09:54:38.841Z,2.40
2022-11-01T09:55:38.822Z,3.30
2022-11-01T09:56:38.818Z,6.00
2022-11-01T09:57:38.815Z,2.10
2022-11-01T09:58:38.802Z,4.60
2022-11-01T09:59:38.820Z,3.10
2022-11-01T10:00:38.879Z,2.60
2022-11-01T10:01:38.959Z,4.40
2022-11-01T10:02:38.749Z,5.60
2022-11-01T10:03:38.738Z,2.70
2022-11-01T10:04:38.746Z,5.10
2022-11-01T10:05:38.908Z,3.40
2022-11-01T10:06:39.563Z,2.90
2022-11-01T10:07:39.465Z,3.30
2022-11-01T10:08:38.697Z,4.20
2022-11-01T10:09:38.674Z,2.80
2022-11-01T10:10:38.670Z,4.10
2022-11-01T10:11:38.641Z,6.50
2022-11-01T10:12:39.495Z,5.40
2022-11-01T10:13:38.657Z,3.80
2022-11-01T10:14:38.634Z,5.00
2022-11-01T10:15:38.817Z,2.90
2022-11-01T10:16:38.592Z,3.00
2022-11-01T10:17:38.573Z,4.60
2022-11-01T10:18:38.597Z,6.10
2022-11-01T10:19:38.570Z,2.40
2022-11-01T10:20:38.552Z,3.80
2022-11-01T10:21:38.525Z,4.30
2022-11-01T10:22:38.534Z,3.40
2022-11-01T10:23:38.528Z,4.70
2022-11-01T10:24:38.501Z,3.80
2022-11-01T10:25:38.473Z,2.20
2022-11-01T10:26:39.326Z,3.30
2022-11-01T10:27:38.503Z,2.80
2022-11-01T10:28:38.448Z,2.60
2022-11-01T10:29:38.427Z,2.10
2022-11-01T10:30:38.444Z,3.70
2022-11-01T10:31:38.432Z,3.50
2022-11-01T10:32:38.465Z,3.00
2022-11-01T10:33:38.404Z,4.70
2022-11-01T10:34:39.215Z,2.90
2022-11-01T10:35:38.360Z,3.10
2022-11-01T10:37:41.021Z,3.00
2022-11-01T10:39:57.190Z,1.50
2022-11-01T10:40:39.338Z,2.90
2022-11-01T10:41:38.289Z,4.30
2022-11-01T10:42:38.323Z,6.20
2022-11-01T10:43:38.289Z,3.40
2022-11-01T10:44:38.289Z,4.80
2022-11-01T10:45:39.153Z,3.70
2022-11-01T10:46:39.046Z,5.10
2022-11-01T10:47:38.948Z,3.00
2022-11-01T10:48:39.012Z,6.00
2022-11-01T10:50:05.502Z,4.20
2022-11-01T10:50:39.212Z,2.60
2022-11-01T10:51:38.178Z,5.80
2022-11-01T10:52:38.196Z,3.20
2022-11-01T10:53:38.150Z,2.20
2022-11-01T10:54:38.174Z,2.70
2022-11-01T10:55:38.152Z,7.10
2022-11-01T10:56:38.148Z,3.60
2022-11-01T10:57:38.114Z,4.70
2022-11-01T10:58:38.120Z,2.30
2022-11-01T10:59:38.104Z,3.60
2022-11-01T11:00:38.152Z,4.30
2022-11-01T11:01:38.234Z,3.00
2022-11-01T11:02:38.180Z,1.60
2022-11-01T11:03:38.038Z,6.60
2022-11-01T11:04:38.061Z,2.40
2022-11-01T11:05:38.028Z,2.80
2022-11-01T11:06:38.031Z,5.30
2022-11-01T11:07:38.722Z,3.60
2022-11-01T11:08:38.729Z,2.50
2022-11-01T11:09:38.000Z,2.60
2022-11-01T11:10:37.979Z,3.00
2022-11-01T11:11:37.951Z,4.30
2022-11-01T11:12:37.994Z,2.80
2022-11-01T11:13:37.947Z,2.40
2022-11-01T11:14:37.930Z,5.70
2022-11-01T11:15:37.919Z,4.00
2022-11-01T11:16:38.329Z,2.90
2022-11-01T11:17:38.913Z,3.60
2022-11-01T11:18:37.900Z,2.60
2022-11-01T11:19:37.860Z,3.80
2022-11-01T11:20:37.896Z,3.80
2022-11-01T11:21:37.832Z,1.90
2022-11-01T11:22:37.839Z,4.20
2022-11-01T11:23:37.831Z,2.40
2022-11-01T11:24:37.829Z,4.90
2022-11-01T11:25:37.780Z,2.70
2022-11-01T11:26:38.891Z,2.70
2022-11-01T11:27:37.777Z,3.00
2022-11-01T11:28:37.783Z,3.40
2022-11-01T11:29:37.774Z,4.90
2022-11-01T11:30:37.761Z,1.80
2022-11-01T11:31:37.721Z,3.30
2022-11-01T11:32:37.722Z,3.80
2022-11-01T11:33:37.700Z,4.60
2022-11-01T11:34:37.702Z,1.80
2022-11-01T11:35:37.696Z,2.10
2022-11-01T11:36:37.698Z,5.00
2022-11-01T11:37:37.649Z,3.40
2022-11-01T11:38:37.642Z,3.10
2022-11-01T11:39:37.641Z,4.40
2022-11-01T11:40:37.627Z,3.50
2022-11-01T11:41:37.691Z,2.20
2022-11-01T11:42:37.611Z,1.40
2022-11-01T11:43:37.590Z,3.70
2022-11-01T11:44:37.572Z,2.50
2022-11-01T11:45:37.581Z,3.50
2022-11-01T11:46:37.579Z,3.10
2022-11-01T11:47:37.551Z,4.40
2022-11-01T11:48:38.360Z,3.50
2022-11-01T11:49:37.560Z,2.40
2022-11-01T11:50:37.501Z,5.10
2022-11-01T11:51:37.513Z,5.20
2022-11-01T11:52:38.748Z,2.30
2022-11-01T11:53:37.491Z,2.40
2022-11-01T11:54:37.466Z,4.50
2022-11-01T11:55:37.463Z,7.20
2022-11-01T11:56:37.445Z,2.10
2022-11-01T11:57:37.443Z,4.20
2022-11-01T11:58:37.444Z,2.10
2022-11-01T11:59:37.456Z,4.50
2022-11-01T12:00:37.388Z,2.80
2022-11-01T12:01:37.436Z,2.70
2022-11-01T12:02:37.904Z,2.90
2022-11-01T12:03:37.372Z,3.10
2022-11-01T12:04:37.361Z,3.60
2022-11-01T12:05:37.354Z,2.20
2022-11-01T12:06:38.333Z,3.60
2022-11-01T12:07:37.352Z,5.10
2022-11-01T12:08:37.292Z,3.00
2022-11-01T12:09:37.316Z,4.00
2022-11-01T12:10:37.274Z,2.90
2022-11-01T12:11:37.282Z,2.70
2022-11-01T12:12:37.251Z,3.30
2022-11-01T12:13:37.251Z,4.00
2022-11-01T12:14:37.264Z,2.80
2022-11-01T12:15:41.104Z,2.90
2022-11-01T12:16:37.207Z,2.50
2022-11-01T12:17:37.202Z,2.30
2022-11-01T12:18:37.190Z,1.50
2022-11-01T12:19:37.184Z,3.30
2022-11-01T12:20:37.165Z,3.40
2022-11-01T12:21:37.174Z,2.60
2022-11-01T12:22:37.149Z,2.90
2022-11-01T12:23:37.132Z,3.60
2022-11-01T12:24:37.122Z,2.90
2022-11-01T12:25:37.114Z,2.60
2022-11-01T12:26:37.092Z,3.80
2022-11-01T12:27:37.092Z,3.50
2022-11-01T12:28:37.065Z,2.40
2022-11-01T12:29:37.084Z,3.50
2022-11-01T12:30:37.093Z,1.90
2022-11-01T12:31:37.062Z,1.60
2022-11-01T12:32:37.044Z,3.00
2022-11-01T12:33:37.034Z,3.50
2022-11-01T12:34:39.775Z,2.90
2022-11-01T12:35:38.023Z,3.20
2022-11-01T12:36:36.994Z,3.70
2022-11-01T12:37:36.993Z,4.00
2022-11-01T12:38:36.953Z,3.70
2022-11-01T12:39:36.962Z,3.50
2022-11-01T12:40:36.944Z,2.10
2022-11-01T12:41:36.994Z,5.30
2022-11-01T12:42:36.916Z,3.30
2022-11-01T12:43:36.944Z,2.10
2022-11-01T12:44:36.923Z,2.30
2022-11-01T12:45:36.913Z,2.80
2022-11-01T12:46:37.126Z,8.00
2022-11-01T12:47:36.919Z,8.00
2022-11-01T12:48:36.854Z,2.10
2022-11-01T12:49:36.862Z,3.60
2022-11-01T12:50:37.636Z,4.40
2022-11-01T12:51:37.267Z,2.50
2022-11-01T12:52:36.804Z,2.40
2022-11-01T12:53:36.895Z,3.80
2022-11-01T12:54:36.793Z,2.00
2022-11-01T12:55:36.781Z,3.40
2022-11-01T12:56:36.893Z,2.90
2022-11-01T12:57:36.754Z,2.50
2022-11-01T12:58:36.724Z,3.70
2022-11-01T12:59:36.734Z,4.40
2022-11-01T13:00:36.705Z,4.30
2022-11-01T13:01:36.777Z,2.00
2022-11-01T13:02:36.706Z,1.90
2022-11-01T13:03:36.683Z,2.30
2022-11-01T13:04:36.680Z,2.70
2022-11-01T13:05:36.675Z,4.20
2022-11-01T13:06:36.634Z,3.80
2022-11-01T13:07:36.637Z,2.40
2022-11-01T13:08:36.613Z,2.80
2022-11-01T13:09:36.618Z,2.70
2022-11-01T13:10:36.659Z,4.20
2022-11-01T13:11:36.621Z,2.50
2022-11-01T13:12:36.577Z,5.10
2022-11-01T13:13:36.574Z,4.50
2022-11-01T13:14:36.556Z,4.40
2022-11-01T13:15:36.555Z,3.10
2022-11-01T13:16:36.614Z,3.20